sensor_id;sensor_type;location;lat;lon;timestamp;pressure;altitude;pressure_sealevel;temperature;humidity
73338;BME280;61575;49.908;35.556;2024-01-25T00:01:37;98823.97;;;-2.13;100.00
73338;BME280;61575;49.908;35.556;2024-01-25T00:04:39;98816.59;;;-2.21;100.00
73338;BME280;61575;49.908;35.556;2024-01-25T00:07:49;98804.69;;;-2.14;100.00
73338;BME280;61575;49.908;35.556;2024-01-25T00:10:51;98800.19;;;-2.12;100.00
73338;BME280;61575;49.908;35.556;2024-01-25T00:13:53;98801.97;;;-2.12;99.98
73338;BME280;61575;49.908;35.556;2024-01-25T00:16:55;98795.97;;;-2.14;100.00
73338;BME280;61575;49.908;35.556;2024-01-25T00:19:57;98792.38;;;-2.13;99.87
73338;BME280;61575;49.908;35.556;2024-01-25T00:23:00;98776.09;;;-2.18;99.91
73338;BME280;61575;49.908;35.556;2024-01-25T00:26:02;98781.56;;;-2.21;99.83
73338;BME280;61575;49.908;35.556;2024-01-25T00:29:04;98775.34;;;-2.20;99.71
73338;BME280;61575;49.908;35.556;2024-01-25T00:32:06;98765.16;;;-2.25;99.70
73338;BME280;61575;49.908;35.556;2024-01-25T00:35:09;98764.44;;;-2.27;100.00
73338;BME280;61575;49.908;35.556;2024-01-25T00:38:12;98753.19;;;-2.29;99.88
73338;BME280;61575;49.908;35.556;2024-01-25T00:41:17;98743.28;;;-2.25;99.96
73338;BME280;61575;49.908;35.556;2024-01-25T00:44:21;98743.19;;;-2.24;99.61
73338;BME280;61575;49.908;35.556;2024-01-25T00:47:23;98744.75;;;-2.21;99.81
73338;BME280;61575;49.908;35.556;2024-01-25T00:50:26;98745.28;;;-2.29;99.73
73338;BME280;61575;49.908;35.556;2024-01-25T00:53:28;98731.41;;;-2.31;99.96
73338;BME280;61575;49.908;35.556;2024-01-25T00:56:31;98722.91;;;-2.34;100.00
73338;BME280;61575;49.908;35.556;2024-01-25T00:59:33;98721.00;;;-2.32;100.00
73338;BME280;61575;49.908;35.556;2024-01-25T01:02:39;98718.25;;;-2.31;99.95
73338;BME280;61575;49.908;35.556;2024-01-25T01:05:42;98713.75;;;-2.29;99.91
73338;BME280;61575;49.908;35.556;2024-01-25T01:08:44;98702.50;;;-2.31;99.97
73338;BME280;61575;49.908;35.556;2024-01-25T01:11:46;98703.31;;;-2.30;100.00
73338;BME280;61575;49.908;35.556;2024-01-25T01:14:49;98699.13;;;-2.33;99.68
73338;BME280;61575;49.908;35.556;2024-01-25T01:17:51;98693.34;;;-2.38;100.00
73338;BME280;61575;49.908;35.556;2024-01-25T01:20:53;98691.56;;;-2.37;99.99
73338;BME280;61575;49.908;35.556;2024-01-25T01:23:55;98680.22;;;-2.38;100.00
73338;BME280;61575;49.908;35.556;2024-01-25T01:26:57;98682.84;;;-2.38;100.00
73338;BME280;61575;49.908;35.556;2024-01-25T01:29:59;98661.50;;;-2.46;100.00
73338;BME280;61575;49.908;35.556;2024-01-25T01:33:01;98661.41;;;-2.45;100.00
73338;BME280;61575;49.908;35.556;2024-01-25T01:36:04;98649.72;;;-2.41;100.00
73338;BME280;61575;49.908;35.556;2024-01-25T01:39:06;98648.78;;;-2.39;100.00
73338;BME280;61575;49.908;35.556;2024-01-25T01:42:08;98644.69;;;-2.44;100.00
73338;BME280;61575;49.908;35.556;2024-01-25T01:45:11;98629.75;;;-2.43;100.00
73338;BME280;61575;49.908;35.556;2024-01-25T01:48:14;98635.22;;;-2.46;100.00
73338;BME280;61575;49.908;35.556;2024-01-25T01:51:18;98617.94;;;-2.37;100.00
73338;BME280;61575;49.908;35.556;2024-01-25T01:54:20;98629.19;;;-2.35;100.00
73338;BME280;61575;49.908;35.556;2024-01-25T01:57:22;98626.97;;;-2.29;100.00
73338;BME280;61575;49.908;35.556;2024-01-25T02:00:26;98609.50;;;-2.30;100.00
73338;BME280;61575;49.908;35.556;2024-01-25T02:03:34;98610.34;;;-2.29;100.00
73338;BME280;61575;49.908;35.556;2024-01-25T02:06:36;98610.22;;;-2.28;100.00
73338;BME280;61575;49.908;35.556;2024-01-25T02:09:39;98602.34;;;-2.28;100.00
73338;BME280;61575;49.908;35.556;2024-01-25T02:12:41;98606.09;;;-2.19;100.00
73338;BME280;61575;49.908;35.556;2024-01-25T02:15:43;98602.50;;;-2.18;100.00
73338;BME280;61575;49.908;35.556;2024-01-25T02:18:46;98582.53;;;-2.21;100.00
73338;BME280;61575;49.908;35.556;2024-01-25T02:21:51;98581.91;;;-2.24;100.00
73338;BME280;61575;49.908;35.556;2024-01-25T02:24:55;98574.66;;;-2.21;100.00
73338;BME280;61575;49.908;35.556;2024-01-25T02:27:58;98577.28;;;-2.21;100.00
73338;BME280;61575;49.908;35.556;2024-01-25T02:31:01;98568.22;;;-2.17;100.00
73338;BME280;61575;49.908;35.556;2024-01-25T02:34:04;98572.41;;;-2.14;100.00
73338;BME280;61575;49.908;35.556;2024-01-25T02:37:06;98558.41;;;-2.15;100.00
73338;BME280;61575;49.908;35.556;2024-01-25T02:40:08;98555.78;;;-2.15;100.00
73338;BME280;61575;49.908;35.556;2024-01-25T02:43:10;98552.31;;;-2.15;100.00
73338;BME280;61575;49.908;35.556;2024-01-25T02:46:13;98537.97;;;-2.11;100.00
73338;BME280;61575;49.908;35.556;2024-01-25T02:49:15;98539.53;;;-2.09;100.00
73338;BME280;61575;49.908;35.556;2024-01-25T02:52:17;98539.66;;;-2.10;100.00
73338;BME280;61575;49.908;35.556;2024-01-25T02:55:20;98534.50;;;-2.12;100.00
73338;BME280;61575;49.908;35.556;2024-01-25T02:58:22;98524.59;;;-2.08;100.00
73338;BME280;61575;49.908;35.556;2024-01-25T03:01:24;98517.91;;;-2.12;100.00
73338;BME280;61575;49.908;35.556;2024-01-25T03:04:26;98518.28;;;-2.05;100.00
73338;BME280;61575;49.908;35.556;2024-01-25T03:07:28;98504.75;;;-2.12;99.80
73338;BME280;61575;49.908;35.556;2024-01-25T03:10:31;98517.53;;;-2.08;99.75
73338;BME280;61575;49.908;35.556;2024-01-25T03:13:33;98504.03;;;-2.14;99.60
73338;BME280;61575;49.908;35.556;2024-01-25T03:16:36;98504.75;;;-2.12;99.65
73338;BME280;61575;49.908;35.556;2024-01-25T03:19:38;98504.13;;;-2.16;99.61
73338;BME280;61575;49.908;35.556;2024-01-25T03:22:40;98499.81;;;-2.17;99.52
73338;BME280;61575;49.908;35.556;2024-01-25T03:25:42;98499.00;;;-2.17;99.40
73338;BME280;61575;49.908;35.556;2024-01-25T03:28:44;98485.97;;;-2.19;99.55
73338;BME280;61575;49.908;35.556;2024-01-25T03:31:46;98480.09;;;-2.22;99.36
73338;BME280;61575;49.908;35.556;2024-01-25T03:34:48;98475.31;;;-2.17;99.33
73338;BME280;61575;49.908;35.556;2024-01-25T03:37:51;98476.88;;;-2.15;99.20
73338;BME280;61575;49.908;35.556;2024-01-25T03:40:53;98471.84;;;-2.18;99.52
73338;BME280;61575;49.908;35.556;2024-01-25T03:43:55;98465.16;;;-2.22;99.27
73338;BME280;61575;49.908;35.556;2024-01-25T03:46:57;98469.69;;;-2.24;99.50
73338;BME280;61575;49.908;35.556;2024-01-25T03:49:59;98466.44;;;-2.27;99.41
73338;BME280;61575;49.908;35.556;2024-01-25T03:53:02;98455.09;;;-2.28;99.30
73338;BME280;61575;49.908;35.556;2024-01-25T03:56:11;98459.97;;;-2.34;99.08
73338;BME280;61575;49.908;35.556;2024-01-25T03:59:13;98450.53;;;-2.37;99.25
73338;BME280;61575;49.908;35.556;2024-01-25T04:02:16;98457.22;;;-2.33;99.61
73338;BME280;61575;49.908;35.556;2024-01-25T04:05:19;98443.13;;;-2.32;99.56
73338;BME280;61575;49.908;35.556;2024-01-25T04:08:20;98440.00;;;-2.37;99.61
73338;BME280;61575;49.908;35.556;2024-01-25T04:11:23;98444.19;;;-2.34;99.36
73338;BME280;61575;49.908;35.556;2024-01-25T04:14:27;98435.47;;;-2.35;99.49
73338;BME280;61575;49.908;35.556;2024-01-25T04:17:30;98429.72;;;-2.40;99.41
73338;BME280;61575;49.908;35.556;2024-01-25T04:20:32;98428.53;;;-2.36;99.41
73338;BME280;61575;49.908;35.556;2024-01-25T04:23:36;98426.88;;;-2.37;99.30
73338;BME280;61575;49.908;35.556;2024-01-25T04:26:38;98420.41;;;-2.33;99.42
73338;BME280;61575;49.908;35.556;2024-01-25T04:29:40;98415.28;;;-2.34;99.25
73338;BME280;61575;49.908;35.556;2024-01-25T04:32:45;98412.38;;;-2.43;99.51
73338;BME280;61575;49.908;35.556;2024-01-25T04:35:47;98405.34;;;-2.42;99.36
73338;BME280;61575;49.908;35.556;2024-01-25T04:38:50;98404.03;;;-2.36;99.39
73338;BME280;61575;49.908;35.556;2024-01-25T04:41:52;98391.97;;;-2.39;99.61
73338;BME280;61575;49.908;35.556;2024-01-25T04:44:54;98391.97;;;-2.39;99.26
73338;BME280;61575;49.908;35.556;2024-01-25T04:47:56;98395.91;;;-2.45;99.27
73338;BME280;61575;49.908;35.556;2024-01-25T04:50:58;98393.16;;;-2.43;99.32
73338;BME280;61575;49.908;35.556;2024-01-25T04:54:01;98393.63;;;-2.38;99.57
73338;BME280;61575;49.908;35.556;2024-01-25T04:57:04;98390.41;;;-2.42;99.44
73338;BME280;61575;49.908;35.556;2024-01-25T05:00:09;98391.13;;;-2.39;99.66
73338;BME280;61575;49.908;35.556;2024-01-25T05:03:11;98385.03;;;-2.40;99.69
73338;BME280;61575;49.908;35.556;2024-01-25T05:06:13;98389.56;;;-2.42;99.47
73338;BME280;61575;49.908;35.556;2024-01-25T05:09:15;98385.25;;;-2.43;99.41
73338;BME280;61575;49.908;35.556;2024-01-25T05:12:17;98380.59;;;-2.39;99.48
73338;BME280;61575;49.908;35.556;2024-01-25T05:15:19;98382.88;;;-2.46;99.34
73338;BME280;61575;49.908;35.556;2024-01-25T05:18:21;98375.22;;;-2.38;100.00
73338;BME280;61575;49.908;35.556;2024-01-25T05:21:23;98371.66;;;-2.37;99.71
73338;BME280;61575;49.908;35.556;2024-01-25T05:24:25;98375.34;;;-2.39;100.00
73338;BME280;61575;49.908;35.556;2024-01-25T05:27:27;98376.31;;;-2.41;99.89
73338;BME280;61575;49.908;35.556;2024-01-25T05:30:29;98382.88;;;-2.35;99.89
73338;BME280;61575;49.908;35.556;2024-01-25T05:33:31;98368.31;;;-2.28;100.00
73338;BME280;61575;49.908;35.556;2024-01-25T05:36:35;98375.50;;;-2.30;99.79
73338;BME280;61575;49.908;35.556;2024-01-25T05:39:40;98365.22;;;-2.33;99.88
73338;BME280;61575;49.908;35.556;2024-01-25T05:42:42;98369.16;;;-2.27;99.90
73338;BME280;61575;49.908;35.556;2024-01-25T05:45:44;98359.97;;;-2.22;99.60
73338;BME280;61575;49.908;35.556;2024-01-25T05:48:46;98362.94;;;-2.15;99.57
73338;BME280;61575;49.908;35.556;2024-01-25T05:51:48;98355.91;;;-2.15;99.27
73338;BME280;61575;49.908;35.556;2024-01-25T05:54:51;98354.22;;;-2.16;99.66
73338;BME280;61575;49.908;35.556;2024-01-25T05:57:53;98341.78;;;-2.14;99.58
73338;BME280;61575;49.908;35.556;2024-01-25T06:00:55;98343.47;;;-2.13;99.65
73338;BME280;61575;49.908;35.556;2024-01-25T06:03:57;98337.00;;;-2.09;99.64
73338;BME280;61575;49.908;35.556;2024-01-25T06:07:00;98332.59;;;-2.08;99.54
73338;BME280;61575;49.908;35.556;2024-01-25T06:10:02;98328.03;;;-2.06;99.25
73338;BME280;61575;49.908;35.556;2024-01-25T06:13:05;98326.72;;;-2.00;99.35
73338;BME280;61575;49.908;35.556;2024-01-25T06:16:07;98334.03;;;-1.93;99.19
73338;BME280;61575;49.908;35.556;2024-01-25T06:19:10;98323.13;;;-1.88;99.12
73338;BME280;61575;49.908;35.556;2024-01-25T06:22:12;98315.59;;;-1.82;98.82
73338;BME280;61575;49.908;35.556;2024-01-25T06:25:14;98315.94;;;-1.75;98.51
73338;BME280;61575;49.908;35.556;2024-01-25T06:28:16;98313.31;;;-1.75;98.45
73338;BME280;61575;49.908;35.556;2024-01-25T06:31:19;98313.06;;;-1.72;98.38
73338;BME280;61575;49.908;35.556;2024-01-25T06:34:22;98312.09;;;-1.71;98.58
73338;BME280;61575;49.908;35.556;2024-01-25T06:37:24;98298.81;;;-1.69;98.55
73338;BME280;61575;49.908;35.556;2024-01-25T06:40:26;98290.31;;;-1.62;98.16
73338;BME280;61575;49.908;35.556;2024-01-25T06:43:28;98293.53;;;-1.58;97.88
73338;BME280;61575;49.908;35.556;2024-01-25T06:46:30;98282.28;;;-1.60;97.83
73338;BME280;61575;49.908;35.556;2024-01-25T06:49:32;98289.22;;;-1.59;97.56
73338;BME280;61575;49.908;35.556;2024-01-25T06:52:34;98281.44;;;-1.61;97.76
73338;BME280;61575;49.908;35.556;2024-01-25T06:55:37;98280.38;;;-1.58;97.72
73338;BME280;61575;49.908;35.556;2024-01-25T06:58:39;98277.38;;;-1.54;97.67
73338;BME280;61575;49.908;35.556;2024-01-25T07:01:41;98279.63;;;-1.49;97.39
73338;BME280;61575;49.908;35.556;2024-01-25T07:04:43;98280.78;;;-1.42;97.34
73338;BME280;61575;49.908;35.556;2024-01-25T07:07:46;98274.31;;;-1.38;96.82
73338;BME280;61575;49.908;35.556;2024-01-25T07:10:48;98269.19;;;-1.39;96.93
73338;BME280;61575;49.908;35.556;2024-01-25T07:13:51;98273.47;;;-1.38;96.63
73338;BME280;61575;49.908;35.556;2024-01-25T07:16:53;98271.06;;;-1.30;96.68
73338;BME280;61575;49.908;35.556;2024-01-25T07:19:55;98278.38;;;-1.34;96.62
73338;BME280;61575;49.908;35.556;2024-01-25T07:22:58;98269.47;;;-1.22;96.58
73338;BME280;61575;49.908;35.556;2024-01-25T07:26:00;98263.03;;;-1.08;96.40
73338;BME280;61575;49.908;35.556;2024-01-25T07:29:02;98265.53;;;-1.06;96.10
73338;BME280;61575;49.908;35.556;2024-01-25T07:32:04;98264.19;;;-1.01;96.05
73338;BME280;61575;49.908;35.556;2024-01-25T07:35:07;98269.13;;;-1.07;95.93
73338;BME280;61575;49.908;35.556;2024-01-25T07:38:09;98256.41;;;-1.02;95.88
73338;BME280;61575;49.908;35.556;2024-01-25T07:41:11;98253.84;;;-0.93;95.68
73338;BME280;61575;49.908;35.556;2024-01-25T07:44:16;98254.09;;;-0.75;95.66
73338;BME280;61575;49.908;35.556;2024-01-25T07:47:18;98256.47;;;-0.72;95.29
73338;BME280;61575;49.908;35.556;2024-01-25T07:50:20;98248.81;;;-0.75;94.80
73338;BME280;61575;49.908;35.556;2024-01-25T07:53:22;98246.88;;;-0.73;94.77
73338;BME280;61575;49.908;35.556;2024-01-25T07:56:24;98247.19;;;-0.66;94.79
73338;BME280;61575;49.908;35.556;2024-01-25T07:59:27;98250.97;;;-0.59;95.05
73338;BME280;61575;49.908;35.556;2024-01-25T08:02:29;98247.13;;;-0.55;94.50
73338;BME280;61575;49.908;35.556;2024-01-25T08:05:31;98244.75;;;-0.58;94.60
73338;BME280;61575;49.908;35.556;2024-01-25T08:08:45;98239.91;;;-0.53;94.47
73338;BME280;61575;49.908;35.556;2024-01-25T08:11:47;98240.63;;;-0.51;94.32
73338;BME280;61575;49.908;35.556;2024-01-25T08:14:49;98241.22;;;-0.38;94.10
73338;BME280;61575;49.908;35.556;2024-01-25T08:17:51;98241.66;;;-0.33;93.97
73338;BME280;61575;49.908;35.556;2024-01-25T08:20:53;98237.78;;;-0.29;93.79
73338;BME280;61575;49.908;35.556;2024-01-25T08:23:55;98247.38;;;-0.28;93.79
73338;BME280;61575;49.908;35.556;2024-01-25T08:26:58;98236.97;;;-0.29;93.72
73338;BME280;61575;49.908;35.556;2024-01-25T08:30:00;98239.28;;;-0.36;93.54
73338;BME280;61575;49.908;35.556;2024-01-25T08:33:02;98238.56;;;-0.48;93.92
73338;BME280;61575;49.908;35.556;2024-01-25T08:36:05;98237.19;;;-0.42;94.13
73338;BME280;61575;49.908;35.556;2024-01-25T08:39:08;98229.84;;;-0.38;94.00
73338;BME280;61575;49.908;35.556;2024-01-25T08:42:10;98231.13;;;-0.33;94.14
73338;BME280;61575;49.908;35.556;2024-01-25T08:45:16;98226.41;;;-0.29;93.99
73338;BME280;61575;49.908;35.556;2024-01-25T08:48:18;98220.47;;;-0.22;93.94
73338;BME280;61575;49.908;35.556;2024-01-25T08:51:20;98218.66;;;-0.21;93.77
73338;BME280;61575;49.908;35.556;2024-01-25T08:54:22;98223.81;;;-0.20;93.84
73338;BME280;61575;49.908;35.556;2024-01-25T08:57:24;98216.31;;;-0.15;93.83
73338;BME280;61575;49.908;35.556;2024-01-25T09:00:26;98199.53;;;-0.04;93.44
73338;BME280;61575;49.908;35.556;2024-01-25T09:03:28;98202.19;;;-0.04;93.33
73338;BME280;61575;49.908;35.556;2024-01-25T09:06:30;98196.63;;;-0.01;93.14
73338;BME280;61575;49.908;35.556;2024-01-25T09:09:32;98189.28;;;0.03;93.41
73338;BME280;61575;49.908;35.556;2024-01-25T09:12:35;98184.69;;;0.05;93.18
73338;BME280;61575;49.908;35.556;2024-01-25T09:15:37;98174.16;;;0.14;93.48
73338;BME280;61575;49.908;35.556;2024-01-25T09:18:39;98173.19;;;0.15;93.05
73338;BME280;61575;49.908;35.556;2024-01-25T09:21:42;98175.13;;;0.23;93.29
73338;BME280;61575;49.908;35.556;2024-01-25T09:24:47;98176.53;;;0.27;92.81
73338;BME280;61575;49.908;35.556;2024-01-25T09:27:51;98175.00;;;0.25;92.97
73338;BME280;61575;49.908;35.556;2024-01-25T09:30:55;98169.59;;;0.26;93.12
73338;BME280;61575;49.908;35.556;2024-01-25T09:33:58;98162.91;;;0.22;92.93
73338;BME280;61575;49.908;35.556;2024-01-25T09:37:00;98163.47;;;0.26;93.04
73338;BME280;61575;49.908;35.556;2024-01-25T09:40:03;98156.66;;;0.33;93.36
73338;BME280;61575;49.908;35.556;2024-01-25T09:43:06;98160.56;;;0.38;93.15
73338;BME280;61575;49.908;35.556;2024-01-25T09:46:13;98153.59;;;0.37;93.22
73338;BME280;61575;49.908;35.556;2024-01-25T09:49:15;98149.16;;;0.47;93.18
73338;BME280;61575;49.908;35.556;2024-01-25T09:52:18;98156.25;;;0.37;93.34
73338;BME280;61575;49.908;35.556;2024-01-25T09:55:24;98145.69;;;0.47;93.36
73338;BME280;61575;49.908;35.556;2024-01-25T09:58:36;98144.28;;;0.52;93.10
73338;BME280;61575;49.908;35.556;2024-01-25T10:01:38;98141.09;;;0.59;93.04
73338;BME280;61575;49.908;35.556;2024-01-25T10:04:41;98139.81;;;0.63;92.70
73338;BME280;61575;49.908;35.556;2024-01-25T10:07:45;98135.94;;;0.67;92.85
73338;BME280;61575;49.908;35.556;2024-01-25T10:10:48;98126.59;;;0.72;92.75
73338;BME280;61575;49.908;35.556;2024-01-25T10:13:50;98125.88;;;0.80;92.63
73338;BME280;61575;49.908;35.556;2024-01-25T10:16:54;98118.09;;;0.88;92.70
73338;BME280;61575;49.908;35.556;2024-01-25T10:20:00;98121.13;;;0.93;92.38
73338;BME280;61575;49.908;35.556;2024-01-25T10:23:03;98118.78;;;0.90;92.03
73338;BME280;61575;49.908;35.556;2024-01-25T10:26:07;98113.16;;;1.03;92.16
73338;BME280;61575;49.908;35.556;2024-01-25T10:29:09;98118.72;;;1.09;92.13
73338;BME280;61575;49.908;35.556;2024-01-25T10:32:12;98110.50;;;1.12;92.05
73338;BME280;61575;49.908;35.556;2024-01-25T10:35:15;98102.53;;;1.22;91.96
73338;BME280;61575;49.908;35.556;2024-01-25T10:38:21;98101.34;;;1.34;91.54
73338;BME280;61575;49.908;35.556;2024-01-25T10:41:26;98092.97;;;1.39;91.07
73338;BME280;61575;49.908;35.556;2024-01-25T10:44:30;98090.53;;;1.28;91.29
73338;BME280;61575;49.908;35.556;2024-01-25T10:47:33;98095.22;;;1.34;91.36
73338;BME280;61575;49.908;35.556;2024-01-25T10:50:37;98087.34;;;1.24;91.43
73338;BME280;61575;49.908;35.556;2024-01-25T10:53:41;98088.19;;;1.25;91.81
73338;BME280;61575;49.908;35.556;2024-01-25T10:56:45;98085.47;;;1.34;91.92
73338;BME280;61575;49.908;35.556;2024-01-25T10:59:47;98082.63;;;1.45;91.73
73338;BME280;61575;49.908;35.556;2024-01-25T11:02:51;98082.09;;;1.42;92.00
73338;BME280;61575;49.908;35.556;2024-01-25T11:06:11;98074.47;;;1.39;91.41
73338;BME280;61575;49.908;35.556;2024-01-25T11:09:18;98070.59;;;1.33;91.52
73338;BME280;61575;49.908;35.556;2024-01-25T11:12:20;98071.13;;;1.37;92.02
73338;BME280;61575;49.908;35.556;2024-01-25T11:15:36;98066.00;;;1.35;91.83
73338;BME280;61575;49.908;35.556;2024-01-25T11:18:52;98071.44;;;1.34;91.96
73338;BME280;61575;49.908;35.556;2024-01-25T11:21:55;98068.63;;;1.35;91.92
73338;BME280;61575;49.908;35.556;2024-01-25T11:24:57;98063.78;;;1.31;91.79
73338;BME280;61575;49.908;35.556;2024-01-25T11:28:00;98059.47;;;1.30;92.28
73338;BME280;61575;49.908;35.556;2024-01-25T11:31:03;98063.25;;;1.27;92.35
73338;BME280;61575;49.908;35.556;2024-01-25T11:34:05;98062.72;;;1.24;92.75
73338;BME280;61575;49.908;35.556;2024-01-25T11:37:07;98061.03;;;1.23;92.72
73338;BME280;61575;49.908;35.556;2024-01-25T11:40:11;98059.53;;;1.20;92.81
73338;BME280;61575;49.908;35.556;2024-01-25T11:43:14;98058.78;;;1.28;93.16
73338;BME280;61575;49.908;35.556;2024-01-25T11:46:17;98058.09;;;1.26;92.79
73338;BME280;61575;49.908;35.556;2024-01-25T11:49:19;98054.69;;;1.15;93.07
73338;BME280;61575;49.908;35.556;2024-01-25T11:52:21;98054.00;;;1.13;93.54
73338;BME280;61575;49.908;35.556;2024-01-25T11:55:23;98053.59;;;1.08;93.85
73338;BME280;61575;49.908;35.556;2024-01-25T11:58:26;98048.69;;;1.13;94.11
73338;BME280;61575;49.908;35.556;2024-01-25T12:01:31;98057.91;;;1.09;94.06
73338;BME280;61575;49.908;35.556;2024-01-25T12:04:34;98050.94;;;1.08;93.96
73338;BME280;61575;49.908;35.556;2024-01-25T12:07:39;98055.84;;;1.03;94.53
73338;BME280;61575;49.908;35.556;2024-01-25T12:10:42;98055.56;;;1.06;94.94
73338;BME280;61575;49.908;35.556;2024-01-25T12:13:44;98047.09;;;1.03;94.87
73338;BME280;61575;49.908;35.556;2024-01-25T12:16:46;98055.44;;;0.98;95.09
73338;BME280;61575;49.908;35.556;2024-01-25T12:19:48;98053.09;;;0.95;95.37
73338;BME280;61575;49.908;35.556;2024-01-25T12:22:50;98055.59;;;0.97;95.45
73338;BME280;61575;49.908;35.556;2024-01-25T12:25:52;98055.44;;;0.98;95.34
73338;BME280;61575;49.908;35.556;2024-01-25T12:28:55;98057.00;;;0.91;95.78
73338;BME280;61575;49.908;35.556;2024-01-25T12:31:57;98053.38;;;0.92;95.58
73338;BME280;61575;49.908;35.556;2024-01-25T12:35:00;98054.38;;;0.91;95.88
73338;BME280;61575;49.908;35.556;2024-01-25T12:38:07;98044.78;;;0.90;95.79
73338;BME280;61575;49.908;35.556;2024-01-25T12:41:09;98058.66;;;0.92;95.94
73338;BME280;61575;49.908;35.556;2024-01-25T12:44:12;98050.59;;;0.94;95.89
73338;BME280;61575;49.908;35.556;2024-01-25T12:47:14;98058.66;;;0.92;95.96
73338;BME280;61575;49.908;35.556;2024-01-25T12:50:16;98066.75;;;0.91;96.21
73338;BME280;61575;49.908;35.556;2024-01-25T12:53:19;98063.66;;;0.95;96.17
73338;BME280;61575;49.908;35.556;2024-01-25T12:56:21;98060.72;;;0.98;96.03
73338;BME280;61575;49.908;35.556;2024-01-25T12:59:23;98058.09;;;0.98;96.20
73338;BME280;61575;49.908;35.556;2024-01-25T13:02:25;98056.97;;;1.01;96.38
73338;BME280;61575;49.908;35.556;2024-01-25T13:05:27;98057.94;;;1.00;96.62
73338;BME280;61575;49.908;35.556;2024-01-25T13:08:30;98063.22;;;1.00;97.00
73338;BME280;61575;49.908;35.556;2024-01-25T13:11:32;98059.31;;;1.04;96.99
73338;BME280;61575;49.908;35.556;2024-01-25T13:14:34;98060.88;;;0.97;96.98
73338;BME280;61575;49.908;35.556;2024-01-25T13:17:36;98058.94;;;0.99;97.36
73338;BME280;61575;49.908;35.556;2024-01-25T13:20:38;98058.78;;;1.00;97.74
73338;BME280;61575;49.908;35.556;2024-01-25T13:23:40;98066.16;;;0.97;97.60
73338;BME280;61575;49.908;35.556;2024-01-25T13:26:42;98062.84;;;0.95;97.79
73338;BME280;61575;49.908;35.556;2024-01-25T13:29:44;98057.84;;;0.92;98.42
73338;BME280;61575;49.908;35.556;2024-01-25T13:32:46;98064.78;;;0.93;98.39
73338;BME280;61575;49.908;35.556;2024-01-25T13:35:48;98064.25;;;0.89;98.42
73338;BME280;61575;49.908;35.556;2024-01-25T13:38:50;98063.13;;;0.92;98.51
73338;BME280;61575;49.908;35.556;2024-01-25T13:41:52;98061.31;;;0.92;98.57
73338;BME280;61575;49.908;35.556;2024-01-25T13:44:54;98071.34;;;0.89;98.83
73338;BME280;61575;49.908;35.556;2024-01-25T13:47:56;98062.59;;;0.88;99.18
73338;BME280;61575;49.908;35.556;2024-01-25T13:50:58;98056.31;;;0.89;99.07
73338;BME280;61575;49.908;35.556;2024-01-25T13:54:00;98059.94;;;0.88;99.04
73338;BME280;61575;49.908;35.556;2024-01-25T13:57:02;98049.38;;;0.88;98.95
73338;BME280;61575;49.908;35.556;2024-01-25T14:00:05;98054.78;;;0.87;99.11
73338;BME280;61575;49.908;35.556;2024-01-25T14:03:07;98052.59;;;0.82;99.48
73338;BME280;61575;49.908;35.556;2024-01-25T14:06:09;98054.25;;;0.83;99.52
73338;BME280;61575;49.908;35.556;2024-01-25T14:09:11;98057.31;;;0.78;99.71
73338;BME280;61575;49.908;35.556;2024-01-25T14:12:14;98061.63;;;0.79;100.00
73338;BME280;61575;49.908;35.556;2024-01-25T14:15:19;98058.44;;;0.76;100.00
73338;BME280;61575;49.908;35.556;2024-01-25T14:18:21;98060.41;;;0.74;100.00
73338;BME280;61575;49.908;35.556;2024-01-25T14:21:24;98055.94;;;0.74;100.00
73338;BME280;61575;49.908;35.556;2024-01-25T14:24:26;98056.66;;;0.67;100.00
73338;BME280;61575;49.908;35.556;2024-01-25T14:27:28;98058.19;;;0.69;100.00
73338;BME280;61575;49.908;35.556;2024-01-25T14:30:30;98055.41;;;0.71;100.00
73338;BME280;61575;49.908;35.556;2024-01-25T14:33:32;98051.09;;;0.70;100.00
73338;BME280;61575;49.908;35.556;2024-01-25T14:36:35;98060.69;;;0.71;100.00
73338;BME280;61575;49.908;35.556;2024-01-25T14:39:37;98059.72;;;0.72;100.00
73338;BME280;61575;49.908;35.556;2024-01-25T14:42:41;98059.72;;;0.72;100.00
73338;BME280;61575;49.908;35.556;2024-01-25T14:45:43;98057.75;;;0.74;100.00
73338;BME280;61575;49.908;35.556;2024-01-25T14:48:46;98057.91;;;0.72;100.00
73338;BME280;61575;49.908;35.556;2024-01-25T14:51:48;98058.75;;;0.73;100.00
73338;BME280;61575;49.908;35.556;2024-01-25T14:54:50;98050.94;;;0.71;100.00
73338;BME280;61575;49.908;35.556;2024-01-25T14:57:53;98051.25;;;0.68;100.00
73338;BME280;61575;49.908;35.556;2024-01-25T15:00:55;98056.38;;;0.70;100.00
73338;BME280;61575;49.908;35.556;2024-01-25T15:03:57;98052.63;;;0.72;100.00
73338;BME280;61575;49.908;35.556;2024-01-25T15:07:00;98051.09;;;0.70;100.00
73338;BME280;61575;49.908;35.556;2024-01-25T15:10:02;98052.75;;;0.71;100.00
73338;BME280;61575;49.908;35.556;2024-01-25T15:13:05;98053.75;;;0.70;100.00
73338;BME280;61575;49.908;35.556;2024-01-25T15:19:41;98061.66;;;0.70;100.00
73338;BME280;61575;49.908;35.556;2024-01-25T15:22:43;98061.53;;;0.71;100.00
73338;BME280;61575;49.908;35.556;2024-01-25T15:25:45;98064.31;;;0.70;100.00
73338;BME280;61575;49.908;35.556;2024-01-25T15:28:47;98064.16;;;0.71;100.00
73338;BME280;61575;49.908;35.556;2024-01-25T15:31:49;98065.53;;;0.75;100.00
73338;BME280;61575;49.908;35.556;2024-01-25T15:34:51;98065.53;;;0.75;100.00
73338;BME280;61575;49.908;35.556;2024-01-25T15:37:53;98072.63;;;0.75;100.00
73338;BME280;61575;49.908;35.556;2024-01-25T15:40:55;98064.72;;;0.75;100.00
73338;BME280;61575;49.908;35.556;2024-01-25T15:43:57;98071.25;;;0.71;100.00
73338;BME280;61575;49.908;35.556;2024-01-25T15:46:59;98068.19;;;0.75;100.00
73338;BME280;61575;49.908;35.556;2024-01-25T15:50:02;98070.00;;;0.75;100.00
73338;BME280;61575;49.908;35.556;2024-01-25T15:53:07;98074.31;;;0.76;100.00
73338;BME280;61575;49.908;35.556;2024-01-25T15:56:09;98071.81;;;0.74;100.00
73338;BME280;61575;49.908;35.556;2024-01-25T15:59:11;98075.28;;;0.75;100.00
73338;BME280;61575;49.908;35.556;2024-01-25T16:02:13;98065.53;;;0.75;100.00